sensor_id;sensor_type;location;lat;lon;timestamp;P1;durP1;ratioP1;P2;durP2;ratioP2
78820;SDS011;68171;13.882;99.692;2023-09-30T00:00:36;11.55;;;6.90;;
78820;SDS011;68171;13.882;99.692;2023-09-30T00:01:42;9.35;;;6.40;;
78820;SDS011;68171;13.882;99.692;2023-09-30T00:02:49;13.07;;;6.68;;
78820;SDS011;68171;13.882;99.692;2023-09-30T00:04:07;13.43;;;7.40;;
78820;SDS011;68171;13.882;99.692;2023-09-30T00:05:12;11.82;;;6.78;;
78820;SDS011;68171;13.882;99.692;2023-09-30T00:06:20;13.05;;;6.20;;
78820;SDS011;68171;13.882;99.692;2023-09-30T00:07:25;11.68;;;6.57;;
78820;SDS011;68171;13.882;99.692;2023-09-30T00:08:32;11.63;;;5.95;;
78820;SDS011;68171;13.882;99.692;2023-09-30T00:09:37;9.27;;;6.57;;
78820;SDS011;68171;13.882;99.692;2023-09-30T00:10:44;9.13;;;5.80;;
78820;SDS011;68171;13.882;99.692;2023-09-30T00:11:51;10.90;;;6.40;;
78820;SDS011;68171;13.882;99.692;2023-09-30T00:12:59;10.13;;;6.22;;
78820;SDS011;68171;13.882;99.692;2023-09-30T00:14:04;8.52;;;6.00;;
78820;SDS011;68171;13.882;99.692;2023-09-30T00:15:11;12.15;;;6.15;;
78820;SDS011;68171;13.882;99.692;2023-09-30T00:16:16;9.32;;;6.57;;
78820;SDS011;68171;13.882;99.692;2023-09-30T00:17:22;9.43;;;6.20;;
78820;SDS011;68171;13.882;99.692;2023-09-30T00:18:28;13.18;;;6.50;;
78820;SDS011;68171;13.882;99.692;2023-09-30T00:19:34;10.57;;;6.07;;
78820;SDS011;68171;13.882;99.692;2023-09-30T00:20:40;12.05;;;5.78;;
78820;SDS011;68171;13.882;99.692;2023-09-30T00:21:47;10.93;;;5.73;;
78820;SDS011;68171;13.882;99.692;2023-09-30T00:22:52;8.13;;;6.00;;
78820;SDS011;68171;13.882;99.692;2023-09-30T00:23:58;9.48;;;6.03;;
78820;SDS011;68171;13.882;99.692;2023-09-30T00:25:04;9.48;;;5.40;;
78820;SDS011;68171;13.882;99.692;2023-09-30T00:26:11;10.10;;;5.70;;
78820;SDS011;68171;13.882;99.692;2023-09-30T00:27:19;7.85;;;5.07;;
78820;SDS011;68171;13.882;99.692;2023-09-30T00:28:25;8.32;;;4.70;;
78820;SDS011;68171;13.882;99.692;2023-09-30T00:29:31;10.77;;;5.50;;
78820;SDS011;68171;13.882;99.692;2023-09-30T00:30:38;7.25;;;4.45;;
78820;SDS011;68171;13.882;99.692;2023-09-30T00:31:44;8.65;;;4.90;;
78820;SDS011;68171;13.882;99.692;2023-09-30T00:32:51;10.27;;;4.80;;
78820;SDS011;68171;13.882;99.692;2023-09-30T00:33:56;9.15;;;4.78;;
78820;SDS011;68171;13.882;99.692;2023-09-30T00:35:03;10.00;;;4.70;;
78820;SDS011;68171;13.882;99.692;2023-09-30T00:36:09;7.35;;;4.35;;
78820;SDS011;68171;13.882;99.692;2023-09-30T00:37:16;6.80;;;4.40;;
78820;SDS011;68171;13.882;99.692;2023-09-30T00:38:21;6.95;;;4.38;;
78820;SDS011;68171;13.882;99.692;2023-09-30T00:39:28;7.78;;;4.80;;
78820;SDS011;68171;13.882;99.692;2023-09-30T00:40:34;8.02;;;4.00;;
78820;SDS011;68171;13.882;99.692;2023-09-30T00:41:40;8.50;;;4.30;;
78820;SDS011;68171;13.882;99.692;2023-09-30T00:42:47;8.50;;;4.50;;
78820;SDS011;68171;13.882;99.692;2023-09-30T00:43:54;7.37;;;4.20;;
78820;SDS011;68171;13.882;99.692;2023-09-30T00:44:59;6.28;;;3.92;;
78820;SDS011;68171;13.882;99.692;2023-09-30T00:46:11;9.07;;;4.38;;
78820;SDS011;68171;13.882;99.692;2023-09-30T00:47:21;8.68;;;4.38;;
78820;SDS011;68171;13.882;99.692;2023-09-30T00:48:28;7.70;;;4.18;;
78820;SDS011;68171;13.882;99.692;2023-09-30T00:49:34;6.47;;;4.07;;
78820;SDS011;68171;13.882;99.692;2023-09-30T00:50:39;6.85;;;4.00;;
78820;SDS011;68171;13.882;99.692;2023-09-30T00:51:45;7.57;;;4.47;;
78820;SDS011;68171;13.882;99.692;2023-09-30T00:52:53;10.18;;;4.45;;
78820;SDS011;68171;13.882;99.692;2023-09-30T00:54:00;6.65;;;4.07;;
78820;SDS011;68171;13.882;99.692;2023-09-30T00:55:06;6.80;;;4.03;;
78820;SDS011;68171;13.882;99.692;2023-09-30T00:56:14;7.88;;;3.70;;
78820;SDS011;68171;13.882;99.692;2023-09-30T00:57:19;9.48;;;4.40;;
78820;SDS011;68171;13.882;99.692;2023-09-30T00:58:27;9.05;;;4.15;;
78820;SDS011;68171;13.882;99.692;2023-09-30T00:59:34;8.25;;;4.20;;
78820;SDS011;68171;13.882;99.692;2023-09-30T01:00:39;7.45;;;4.20;;
78820;SDS011;68171;13.882;99.692;2023-09-30T01:01:46;7.50;;;4.07;;
78820;SDS011;68171;13.882;99.692;2023-09-30T01:02:52;9.65;;;4.53;;
78820;SDS011;68171;13.882;99.692;2023-09-30T01:04:11;9.55;;;4.63;;
78820;SDS011;68171;13.882;99.692;2023-09-30T01:05:18;7.78;;;3.97;;
78820;SDS011;68171;13.882;99.692;2023-09-30T01:06:24;7.13;;;4.33;;
78820;SDS011;68171;13.882;99.692;2023-09-30T01:07:30;6.57;;;4.38;;
78820;SDS011;68171;13.882;99.692;2023-09-30T01:08:36;9.13;;;4.45;;
78820;SDS011;68171;13.882;99.692;2023-09-30T01:09:41;8.05;;;4.25;;
78820;SDS011;68171;13.882;99.692;2023-09-30T01:10:48;7.72;;;3.88;;
78820;SDS011;68171;13.882;99.692;2023-09-30T01:11:54;9.15;;;4.45;;
78820;SDS011;68171;13.882;99.692;2023-09-30T01:13:00;6.85;;;4.45;;
78820;SDS011;68171;13.882;99.692;2023-09-30T01:14:09;8.25;;;4.55;;
78820;SDS011;68171;13.882;99.692;2023-09-30T01:15:30;6.20;;;4.18;;
78820;SDS011;68171;13.882;99.692;2023-09-30T01:16:35;7.25;;;4.32;;
78820;SDS011;68171;13.882;99.692;2023-09-30T01:17:42;8.10;;;4.40;;
78820;SDS011;68171;13.882;99.692;2023-09-30T01:18:47;7.38;;;4.40;;
78820;SDS011;68171;13.882;99.692;2023-09-30T01:19:54;8.63;;;4.18;;
78820;SDS011;68171;13.882;99.692;2023-09-30T01:20:59;7.53;;;3.95;;
78820;SDS011;68171;13.882;99.692;2023-09-30T01:22:10;8.68;;;4.50;;
78820;SDS011;68171;13.882;99.692;2023-09-30T01:23:16;7.65;;;4.18;;
78820;SDS011;68171;13.882;99.692;2023-09-30T01:24:22;7.65;;;4.63;;
78820;SDS011;68171;13.882;99.692;2023-09-30T01:25:28;8.93;;;4.97;;
78820;SDS011;68171;13.882;99.692;2023-09-30T01:26:36;10.00;;;4.78;;
78820;SDS011;68171;13.882;99.692;2023-09-30T01:27:42;7.50;;;4.30;;
78820;SDS011;68171;13.882;99.692;2023-09-30T01:28:48;9.43;;;4.80;;
78820;SDS011;68171;13.882;99.692;2023-09-30T01:29:53;8.18;;;4.22;;
78820;SDS011;68171;13.882;99.692;2023-09-30T01:31:01;10.55;;;4.75;;
78820;SDS011;68171;13.882;99.692;2023-09-30T01:32:06;8.88;;;4.78;;
78820;SDS011;68171;13.882;99.692;2023-09-30T01:33:13;8.05;;;4.53;;
78820;SDS011;68171;13.882;99.692;2023-09-30T01:34:20;10.32;;;5.22;;
78820;SDS011;68171;13.882;99.692;2023-09-30T01:35:27;9.30;;;5.00;;
78820;SDS011;68171;13.882;99.692;2023-09-30T01:36:32;9.50;;;5.07;;
78820;SDS011;68171;13.882;99.692;2023-09-30T01:37:40;10.45;;;5.30;;
78820;SDS011;68171;13.882;99.692;2023-09-30T01:38:45;7.57;;;5.13;;
78820;SDS011;68171;13.882;99.692;2023-09-30T01:39:52;6.83;;;5.13;;
78820;SDS011;68171;13.882;99.692;2023-09-30T01:40:58;9.18;;;5.30;;
78820;SDS011;68171;13.882;99.692;2023-09-30T01:42:05;10.52;;;5.32;;
78820;SDS011;68171;13.882;99.692;2023-09-30T01:43:10;10.63;;;5.70;;
78820;SDS011;68171;13.882;99.692;2023-09-30T01:44:16;8.57;;;5.80;;
78820;SDS011;68171;13.882;99.692;2023-09-30T01:45:23;9.07;;;5.85;;
78820;SDS011;68171;13.882;99.692;2023-09-30T01:46:28;10.73;;;5.65;;
78820;SDS011;68171;13.882;99.692;2023-09-30T01:47:35;10.35;;;6.03;;
78820;SDS011;68171;13.882;99.692;2023-09-30T01:48:40;10.32;;;6.63;;
78820;SDS011;68171;13.882;99.692;2023-09-30T01:49:46;10.43;;;6.03;;
78820;SDS011;68171;13.882;99.692;2023-09-30T01:50:52;10.13;;;6.93;;
78820;SDS011;68171;13.882;99.692;2023-09-30T01:51:58;12.75;;;7.80;;
78820;SDS011;68171;13.882;99.692;2023-09-30T01:53:05;10.43;;;7.38;;
78820;SDS011;68171;13.882;99.692;2023-09-30T01:54:12;14.20;;;7.43;;
78820;SDS011;68171;13.882;99.692;2023-09-30T01:55:17;11.05;;;7.05;;
78820;SDS011;68171;13.882;99.692;2023-09-30T01:56:24;10.13;;;6.97;;
78820;SDS011;68171;13.882;99.692;2023-09-30T01:57:30;11.68;;;7.20;;
78820;SDS011;68171;13.882;99.692;2023-09-30T01:58:39;11.93;;;7.13;;
78820;SDS011;68171;13.882;99.692;2023-09-30T01:59:44;9.13;;;7.07;;
78820;SDS011;68171;13.882;99.692;2023-09-30T02:00:50;9.73;;;6.78;;
78820;SDS011;68171;13.882;99.692;2023-09-30T02:01:55;11.13;;;6.40;;
78820;SDS011;68171;13.882;99.692;2023-09-30T02:03:02;13.00;;;6.38;;
78820;SDS011;68171;13.882;99.692;2023-09-30T02:04:08;9.70;;;6.05;;
78820;SDS011;68171;13.882;99.692;2023-09-30T02:05:14;9.30;;;6.75;;
78820;SDS011;68171;13.882;99.692;2023-09-30T02:06:20;10.32;;;6.50;;
78820;SDS011;68171;13.882;99.692;2023-09-30T02:07:26;11.73;;;6.43;;
78820;SDS011;68171;13.882;99.692;2023-09-30T02:08:34;10.15;;;6.13;;
78820;SDS011;68171;13.882;99.692;2023-09-30T02:09:40;10.95;;;6.43;;
78820;SDS011;68171;13.882;99.692;2023-09-30T02:10:47;10.18;;;6.95;;
78820;SDS011;68171;13.882;99.692;2023-09-30T02:11:54;9.93;;;7.03;;
78820;SDS011;68171;13.882;99.692;2023-09-30T02:12:59;10.97;;;6.97;;
78820;SDS011;68171;13.882;99.692;2023-09-30T02:14:09;10.98;;;7.20;;
78820;SDS011;68171;13.882;99.692;2023-09-30T02:15:15;11.02;;;7.30;;
78820;SDS011;68171;13.882;99.692;2023-09-30T02:16:21;12.25;;;7.40;;
78820;SDS011;68171;13.882;99.692;2023-09-30T02:17:26;11.77;;;7.55;;
78820;SDS011;68171;13.882;99.692;2023-09-30T02:18:33;10.80;;;7.00;;
78820;SDS011;68171;13.882;99.692;2023-09-30T02:19:38;11.15;;;7.30;;
78820;SDS011;68171;13.882;99.692;2023-09-30T02:20:45;11.07;;;7.43;;
78820;SDS011;68171;13.882;99.692;2023-09-30T02:21:50;10.98;;;7.35;;
78820;SDS011;68171;13.882;99.692;2023-09-30T02:22:57;13.70;;;8.00;;
78820;SDS011;68171;13.882;99.692;2023-09-30T02:24:05;13.63;;;7.40;;
78820;SDS011;68171;13.882;99.692;2023-09-30T02:25:12;10.77;;;7.25;;
78820;SDS011;68171;13.882;99.692;2023-09-30T02:26:17;11.73;;;7.75;;
78820;SDS011;68171;13.882;99.692;2023-09-30T02:27:24;9.73;;;7.30;;
78820;SDS011;68171;13.882;99.692;2023-09-30T02:28:29;11.18;;;7.93;;
78820;SDS011;68171;13.882;99.692;2023-09-30T02:29:37;9.48;;;7.38;;
78820;SDS011;68171;13.882;99.692;2023-09-30T02:30:42;10.88;;;7.45;;
78820;SDS011;68171;13.882;99.692;2023-09-30T02:31:47;10.40;;;7.97;;
78820;SDS011;68171;13.882;99.692;2023-09-30T02:32:54;13.32;;;7.82;;
78820;SDS011;68171;13.882;99.692;2023-09-30T02:34:00;13.45;;;8.38;;
78820;SDS011;68171;13.882;99.692;2023-09-30T02:35:07;12.53;;;9.17;;
78820;SDS011;68171;13.882;99.692;2023-09-30T02:36:14;13.30;;;8.38;;
78820;SDS011;68171;13.882;99.692;2023-09-30T02:37:21;12.27;;;8.27;;
78820;SDS011;68171;13.882;99.692;2023-09-30T02:38:26;12.15;;;8.32;;
78820;SDS011;68171;13.882;99.692;2023-09-30T02:39:34;14.38;;;8.05;;
78820;SDS011;68171;13.882;99.692;2023-09-30T02:40:40;10.27;;;6.90;;
78820;SDS011;68171;13.882;99.692;2023-09-30T02:41:49;12.05;;;8.82;;
78820;SDS011;68171;13.882;99.692;2023-09-30T02:42:56;15.73;;;10.30;;
78820;SDS011;68171;13.882;99.692;2023-09-30T02:44:02;16.25;;;11.27;;
78820;SDS011;68171;13.882;99.692;2023-09-30T02:45:08;14.07;;;11.35;;
78820;SDS011;68171;13.882;99.692;2023-09-30T02:46:16;17.13;;;12.77;;
78820;SDS011;68171;13.882;99.692;2023-09-30T02:47:21;15.95;;;12.70;;
78820;SDS011;68171;13.882;99.692;2023-09-30T02:48:31;15.05;;;11.02;;
78820;SDS011;68171;13.882;99.692;2023-09-30T02:49:37;16.45;;;10.20;;
78820;SDS011;68171;13.882;99.692;2023-09-30T02:50:43;17.15;;;11.68;;
78820;SDS011;68171;13.882;99.692;2023-09-30T02:51:48;16.02;;;12.52;;
78820;SDS011;68171;13.882;99.692;2023-09-30T02:52:55;14.48;;;11.55;;
78820;SDS011;68171;13.882;99.692;2023-09-30T02:54:00;15.43;;;12.30;;
78820;SDS011;68171;13.882;99.692;2023-09-30T02:55:10;15.93;;;11.70;;
78820;SDS011;68171;13.882;99.692;2023-09-30T02:56:15;17.38;;;12.18;;
78820;SDS011;68171;13.882;99.692;2023-09-30T02:57:23;16.13;;;13.00;;
78820;SDS011;68171;13.882;99.692;2023-09-30T02:58:28;16.88;;;13.55;;
78820;SDS011;68171;13.882;99.692;2023-09-30T02:59:34;17.55;;;14.20;;
78820;SDS011;68171;13.882;99.692;2023-09-30T03:00:40;16.83;;;13.32;;
78820;SDS011;68171;13.882;99.692;2023-09-30T03:01:47;19.65;;;13.82;;
78820;SDS011;68171;13.882;99.692;2023-09-30T03:02:53;20.90;;;14.00;;
78820;SDS011;68171;13.882;99.692;2023-09-30T03:03:58;17.90;;;13.15;;
78820;SDS011;68171;13.882;99.692;2023-09-30T03:05:05;16.83;;;12.38;;
78820;SDS011;68171;13.882;99.692;2023-09-30T03:06:11;16.83;;;12.80;;
78820;SDS011;68171;13.882;99.692;2023-09-30T03:07:18;18.92;;;13.50;;
78820;SDS011;68171;13.882;99.692;2023-09-30T03:08:24;19.27;;;13.73;;
78820;SDS011;68171;13.882;99.692;2023-09-30T03:09:30;17.88;;;13.52;;
78820;SDS011;68171;13.882;99.692;2023-09-30T03:10:37;18.75;;;13.32;;
78820;SDS011;68171;13.882;99.692;2023-09-30T03:11:45;19.05;;;13.30;;
78820;SDS011;68171;13.882;99.692;2023-09-30T03:12:50;15.68;;;12.07;;
78820;SDS011;68171;13.882;99.692;2023-09-30T03:13:57;17.67;;;13.50;;
78820;SDS011;68171;13.882;99.692;2023-09-30T03:15:02;17.38;;;12.13;;
78820;SDS011;68171;13.882;99.692;2023-09-30T03:16:08;18.27;;;12.20;;
78820;SDS011;68171;13.882;99.692;2023-09-30T03:17:14;17.20;;;12.60;;
78820;SDS011;68171;13.882;99.692;2023-09-30T03:18:21;18.98;;;12.48;;
78820;SDS011;68171;13.882;99.692;2023-09-30T03:19:29;14.10;;;10.73;;
78820;SDS011;68171;13.882;99.692;2023-09-30T03:20:35;14.30;;;10.18;;
78820;SDS011;68171;13.882;99.692;2023-09-30T03:21:43;11.93;;;9.77;;
78820;SDS011;68171;13.882;99.692;2023-09-30T03:22:48;12.40;;;9.45;;
78820;SDS011;68171;13.882;99.692;2023-09-30T03:23:55;12.50;;;9.00;;
78820;SDS011;68171;13.882;99.692;2023-09-30T03:25:00;11.95;;;8.50;;
78820;SDS011;68171;13.882;99.692;2023-09-30T03:26:14;13.10;;;8.65;;
78820;SDS011;68171;13.882;99.692;2023-09-30T03:27:19;12.18;;;8.73;;
78820;SDS011;68171;13.882;99.692;2023-09-30T03:28:26;13.45;;;9.35;;
78820;SDS011;68171;13.882;99.692;2023-09-30T03:29:31;11.82;;;8.48;;
78820;SDS011;68171;13.882;99.692;2023-09-30T03:30:37;13.30;;;8.43;;
78820;SDS011;68171;13.882;99.692;2023-09-30T03:31:45;11.02;;;8.38;;
78820;SDS011;68171;13.882;99.692;2023-09-30T03:32:51;12.25;;;8.85;;
78820;SDS011;68171;13.882;99.692;2023-09-30T03:33:57;12.23;;;8.82;;
78820;SDS011;68171;13.882;99.692;2023-09-30T03:35:03;13.13;;;8.52;;
78820;SDS011;68171;13.882;99.692;2023-09-30T03:36:09;12.27;;;8.95;;
78820;SDS011;68171;13.882;99.692;2023-09-30T03:37:15;14.40;;;9.77;;
78820;SDS011;68171;13.882;99.692;2023-09-30T03:38:22;13.90;;;10.38;;
78820;SDS011;68171;13.882;99.692;2023-09-30T03:39:27;16.30;;;10.00;;
78820;SDS011;68171;13.882;99.692;2023-09-30T03:40:35;11.27;;;8.35;;
78820;SDS011;68171;13.882;99.692;2023-09-30T03:41:43;12.90;;;9.67;;
78820;SDS011;68171;13.882;99.692;2023-09-30T03:42:50;12.15;;;8.55;;
78820;SDS011;68171;13.882;99.692;2023-09-30T03:43:55;9.75;;;7.25;;
78820;SDS011;68171;13.882;99.692;2023-09-30T03:45:02;8.57;;;6.50;;
78820;SDS011;68171;13.882;99.692;2023-09-30T03:46:08;8.85;;;4.50;;
78820;SDS011;68171;13.882;99.692;2023-09-30T03:47:15;9.07;;;5.15;;
78820;SDS011;68171;13.882;99.692;2023-09-30T03:48:20;8.05;;;4.97;;
78820;SDS011;68171;13.882;99.692;2023-09-30T03:49:28;9.02;;;6.00;;
78820;SDS011;68171;13.882;99.692;2023-09-30T03:50:33;10.52;;;6.40;;
78820;SDS011;68171;13.882;99.692;2023-09-30T03:51:40;9.40;;;6.18;;
78820;SDS011;68171;13.882;99.692;2023-09-30T03:52:45;8.53;;;6.03;;
78820;SDS011;68171;13.882;99.692;2023-09-30T03:53:53;10.95;;;6.55;;
78820;SDS011;68171;13.882;99.692;2023-09-30T03:54:59;11.55;;;6.47;;
78820;SDS011;68171;13.882;99.692;2023-09-30T03:56:08;10.20;;;6.43;;
78820;SDS011;68171;13.882;99.692;2023-09-30T03:57:16;9.63;;;6.28;;
78820;SDS011;68171;13.882;99.692;2023-09-30T03:58:23;8.38;;;6.15;;
78820;SDS011;68171;13.882;99.692;2023-09-30T03:59:28;9.38;;;5.70;;
78820;SDS011;68171;13.882;99.692;2023-09-30T04:00:35;11.25;;;6.63;;
78820;SDS011;68171;13.882;99.692;2023-09-30T04:01:40;9.13;;;5.50;;
78820;SDS011;68171;13.882;99.692;2023-09-30T04:02:47;7.97;;;4.75;;
78820;SDS011;68171;13.882;99.692;2023-09-30T04:03:53;8.73;;;5.27;;
78820;SDS011;68171;13.882;99.692;2023-09-30T04:05:01;8.20;;;5.47;;
78820;SDS011;68171;13.882;99.692;2023-09-30T04:06:08;6.43;;;4.05;;
78820;SDS011;68171;13.882;99.692;2023-09-30T04:07:15;6.78;;;4.65;;
78820;SDS011;68171;13.882;99.692;2023-09-30T04:08:20;7.13;;;4.53;;
78820;SDS011;68171;13.882;99.692;2023-09-30T04:09:27;7.80;;;3.72;;
78820;SDS011;68171;13.882;99.692;2023-09-30T04:10:32;9.45;;;4.78;;
78820;SDS011;68171;13.882;99.692;2023-09-30T04:11:39;7.55;;;4.38;;
78820;SDS011;68171;13.882;99.692;2023-09-30T04:12:47;8.27;;;4.65;;
78820;SDS011;68171;13.882;99.692;2023-09-30T04:13:54;7.57;;;5.10;;
78820;SDS011;68171;13.882;99.692;2023-09-30T04:15:00;7.10;;;4.77;;
78820;SDS011;68171;13.882;99.692;2023-09-30T04:16:08;7.43;;;4.63;;
78820;SDS011;68171;13.882;99.692;2023-09-30T04:17:13;6.50;;;4.55;;
78820;SDS011;68171;13.882;99.692;2023-09-30T04:18:19;6.65;;;4.55;;
78820;SDS011;68171;13.882;99.692;2023-09-30T04:19:26;9.13;;;4.75;;
78820;SDS011;68171;13.882;99.692;2023-09-30T04:20:35;6.93;;;4.60;;
78820;SDS011;68171;13.882;99.692;2023-09-30T04:21:43;8.02;;;4.70;;
78820;SDS011;68171;13.882;99.692;2023-09-30T04:22:48;9.35;;;4.90;;
78820;SDS011;68171;13.882;99.692;2023-09-30T04:24:00;6.60;;;4.40;;
78820;SDS011;68171;13.882;99.692;2023-09-30T04:25:09;8.43;;;4.75;;
78820;SDS011;68171;13.882;99.692;2023-09-30T04:26:15;9.23;;;4.80;;
78820;SDS011;68171;13.882;99.692;2023-09-30T04:27:21;8.20;;;4.63;;
78820;SDS011;68171;13.882;99.692;2023-09-30T04:28:29;8.63;;;4.70;;
78820;SDS011;68171;13.882;99.692;2023-09-30T04:29:34;9.18;;;4.32;;
78820;SDS011;68171;13.882;99.692;2023-09-30T04:30:41;7.55;;;4.70;;
78820;SDS011;68171;13.882;99.692;2023-09-30T04:31:46;8.20;;;5.07;;
78820;SDS011;68171;13.882;99.692;2023-09-30T04:32:53;8.10;;;4.75;;
78820;SDS011;68171;13.882;99.692;2023-09-30T04:33:58;7.85;;;4.63;;
78820;SDS011;68171;13.882;99.692;2023-09-30T04:35:05;5.85;;;4.18;;
78820;SDS011;68171;13.882;99.692;2023-09-30T04:36:11;8.38;;;4.85;;
78820;SDS011;68171;13.882;99.692;2023-09-30T04:37:18;6.70;;;4.43;;
78820;SDS011;68171;13.882;99.692;2023-09-30T04:38:23;6.00;;;4.53;;
78820;SDS011;68171;13.882;99.692;2023-09-30T04:39:30;6.45;;;4.60;;
78820;SDS011;68171;13.882;99.692;2023-09-30T04:40:39;10.07;;;4.90;;
78820;SDS011;68171;13.882;99.692;2023-09-30T04:41:47;8.68;;;4.57;;
78820;SDS011;68171;13.882;99.692;2023-09-30T04:42:53;7.40;;;4.30;;
78820;SDS011;68171;13.882;99.692;2023-09-30T04:44:03;7.13;;;4.15;;
78820;SDS011;68171;13.882;99.692;2023-09-30T04:45:10;7.10;;;4.50;;
78820;SDS011;68171;13.882;99.692;2023-09-30T04:46:19;8.60;;;4.72;;
78820;SDS011;68171;13.882;99.692;2023-09-30T04:47:26;8.00;;;4.22;;
78820;SDS011;68171;13.882;99.692;2023-09-30T04:48:33;7.67;;;4.50;;
78820;SDS011;68171;13.882;99.692;2023-09-30T04:49:38;10.45;;;4.70;;
78820;SDS011;68171;13.882;99.692;2023-09-30T04:50:47;7.63;;;4.70;;
78820;SDS011;68171;13.882;99.692;2023-09-30T04:51:52;8.45;;;4.93;;
78820;SDS011;68171;13.882;99.692;2023-09-30T04:52:58;7.97;;;4.63;;
78820;SDS011;68171;13.882;99.692;2023-09-30T04:54:03;7.07;;;4.82;;
78820;SDS011;68171;13.882;99.692;2023-09-30T04:55:11;6.97;;;4.32;;
78820;SDS011;68171;13.882;99.692;2023-09-30T04:56:20;7.90;;;5.20;;
78820;SDS011;68171;13.882;99.692;2023-09-30T04:57:27;9.57;;;4.40;;
78820;SDS011;68171;13.882;99.692;2023-09-30T04:58:32;6.28;;;4.28;;
78820;SDS011;68171;13.882;99.692;2023-09-30T04:59:40;7.43;;;4.30;;
78820;SDS011;68171;13.882;99.692;2023-09-30T05:00:46;8.93;;;4.88;;
78820;SDS011;68171;13.882;99.692;2023-09-30T05:01:52;6.50;;;4.30;;
78820;SDS011;68171;13.882;99.692;2023-09-30T05:02:58;8.43;;;4.15;;
78820;SDS011;68171;13.882;99.692;2023-09-30T05:04:04;7.38;;;4.20;;
78820;SDS011;68171;13.882;99.692;2023-09-30T05:05:10;7.22;;;4.13;;
78820;SDS011;68171;13.882;99.692;2023-09-30T05:06:18;6.75;;;3.88;;
78820;SDS011;68171;13.882;99.692;2023-09-30T05:07:23;7.10;;;3.85;;
78820;SDS011;68171;13.882;99.692;2023-09-30T05:08:31;6.85;;;3.95;;
78820;SDS011;68171;13.882;99.692;2023-09-30T05:09:36;7.43;;;4.15;;
78820;SDS011;68171;13.882;99.692;2023-09-30T05:10:43;5.40;;;3.53;;
78820;SDS011;68171;13.882;99.692;2023-09-30T05:11:49;7.00;;;3.90;;
78820;SDS011;68171;13.882;99.692;2023-09-30T05:12:57;7.00;;;4.00;;
78820;SDS011;68171;13.882;99.692;2023-09-30T05:14:04;6.68;;;3.70;;
78820;SDS011;68171;13.882;99.692;2023-09-30T05:15:12;7.68;;;4.07;;
78820;SDS011;68171;13.882;99.692;2023-09-30T05:16:19;5.95;;;3.70;;
78820;SDS011;68171;13.882;99.692;2023-09-30T05:17:26;9.32;;;4.00;;
78820;SDS011;68171;13.882;99.692;2023-09-30T05:18:32;6.28;;;3.97;;
78820;SDS011;68171;13.882;99.692;2023-09-30T05:19:38;7.03;;;4.13;;
78820;SDS011;68171;13.882;99.692;2023-09-30T05:20:43;6.68;;;4.05;;
78820;SDS011;68171;13.882;99.692;2023-09-30T05:21:50;8.07;;;4.00;;
78820;SDS011;68171;13.882;99.692;2023-09-30T05:22:55;7.67;;;4.20;;
78820;SDS011;68171;13.882;99.692;2023-09-30T05:24:02;9.30;;;4.20;;
78820;SDS011;68171;13.882;99.692;2023-09-30T05:25:08;6.50;;;3.75;;
78820;SDS011;68171;13.882;99.692;2023-09-30T05:26:15;7.78;;;3.85;;
78820;SDS011;68171;13.882;99.692;2023-09-30T05:27:20;7.53;;;3.38;;
78820;SDS011;68171;13.882;99.692;2023-09-30T05:28:27;7.55;;;3.40;;
78820;SDS011;68171;13.882;99.692;2023-09-30T05:29:32;7.00;;;4.20;;
78820;SDS011;68171;13.882;99.692;2023-09-30T05:30:41;6.72;;;3.88;;
78820;SDS011;68171;13.882;99.692;2023-09-30T05:31:47;6.28;;;3.60;;
78820;SDS011;68171;13.882;99.692;2023-09-30T05:32:53;7.03;;;3.60;;
78820;SDS011;68171;13.882;99.692;2023-09-30T05:33:59;5.87;;;3.60;;
78820;SDS011;68171;13.882;99.692;2023-09-30T05:35:07;5.95;;;3.38;;
78820;SDS011;68171;13.882;99.692;2023-09-30T05:36:16;7.30;;;3.30;;
78820;SDS011;68171;13.882;99.692;2023-09-30T05:37:23;7.32;;;3.60;;
78820;SDS011;68171;13.882;99.692;2023-09-30T05:38:29;6.32;;;3.50;;
78820;SDS011;68171;13.882;99.692;2023-09-30T05:52:21;6.47;;;3.30;;
78820;SDS011;68171;13.882;99.692;2023-09-30T05:53:29;7.00;;;3.10;;
78820;SDS011;68171;13.882;99.692;2023-09-30T05:54:37;5.43;;;3.20;;
78820;SDS011;68171;13.882;99.692;2023-09-30T05:55:44;5.35;;;3.75;;
78820;SDS011;68171;13.882;99.692;2023-09-30T05:56:50;6.53;;;3.25;;
78820;SDS011;68171;13.882;99.692;2023-09-30T05:57:56;5.72;;;3.28;;
78820;SDS011;68171;13.882;99.692;2023-09-30T05:59:06;6.15;;;3.10;;
78820;SDS011;68171;13.882;99.692;2023-09-30T06:00:13;5.15;;;2.60;;
78820;SDS011;68171;13.882;99.692;2023-09-30T06:01:23;9.98;;;3.30;;
78820;SDS011;68171;13.882;99.692;2023-09-30T06:02:31;6.80;;;3.20;;
78820;SDS011;68171;13.882;99.692;2023-09-30T06:03:41;5.60;;;3.10;;
78820;SDS011;68171;13.882;99.692;2023-09-30T06:04:50;6.10;;;2.85;;
78820;SDS011;68171;13.882;99.692;2023-09-30T06:05:57;5.87;;;2.67;;
78820;SDS011;68171;13.882;99.692;2023-09-30T06:07:03;6.57;;;2.88;;
78820;SDS011;68171;13.882;99.692;2023-09-30T06:08:11;5.40;;;2.88;;
78820;SDS011;68171;13.882;99.692;2023-09-30T06:09:18;6.63;;;3.10;;
78820;SDS011;68171;13.882;99.692;2023-09-30T06:10:30;7.75;;;2.80;;
78820;SDS011;68171;13.882;99.692;2023-09-30T06:11:36;7.47;;;2.97;;
78820;SDS011;68171;13.882;99.692;2023-09-30T06:12:44;5.32;;;2.80;;
78820;SDS011;68171;13.882;99.692;2023-09-30T06:13:51;6.20;;;2.95;;
78820;SDS011;68171;13.882;99.692;2023-09-30T06:14:57;6.57;;;2.70;;
78820;SDS011;68171;13.882;99.692;2023-09-30T06:16:03;6.78;;;2.92;;
78820;SDS011;68171;13.882;99.692;2023-09-30T06:17:12;5.70;;;2.77;;
78820;SDS011;68171;13.882;99.692;2023-09-30T06:18:19;6.30;;;2.50;;
78820;SDS011;68171;13.882;99.692;2023-09-30T06:19:25;4.70;;;2.50;;
78820;SDS011;68171;13.882;99.692;2023-09-30T06:20:32;4.80;;;2.60;;
78820;SDS011;68171;13.882;99.692;2023-09-30T06:21:37;4.25;;;2.10;;
78820;SDS011;68171;13.882;99.692;2023-09-30T06:22:45;4.68;;;1.90;;
78820;SDS011;68171;13.882;99.692;2023-09-30T06:23:57;5.60;;;1.90;;
78820;SDS011;68171;13.882;99.692;2023-09-30T06:25:04;4.57;;;2.00;;
78820;SDS011;68171;13.882;99.692;2023-09-30T06:26:10;4.85;;;1.80;;
78820;SDS011;68171;13.882;99.692;2023-09-30T06:27:17;6.47;;;1.90;;
78820;SDS011;68171;13.882;99.692;2023-09-30T06:28:22;5.53;;;1.90;;
78820;SDS011;68171;13.882;99.692;2023-09-30T06:29:30;4.90;;;1.83;;
78820;SDS011;68171;13.882;99.692;2023-09-30T06:30:35;7.40;;;2.20;;
78820;SDS011;68171;13.882;99.692;2023-09-30T06:31:42;7.00;;;2.78;;
78820;SDS011;68171;13.882;99.692;2023-09-30T06:32:48;4.72;;;2.00;;
78820;SDS011;68171;13.882;99.692;2023-09-30T06:33:54;5.25;;;2.20;;
78820;SDS011;68171;13.882;99.692;2023-09-30T06:35:03;4.10;;;2.00;;
78820;SDS011;68171;13.882;99.692;2023-09-30T06:36:15;4.28;;;1.92;;
78820;SDS011;68171;13.882;99.692;2023-09-30T06:37:20;5.05;;;1.80;;
78820;SDS011;68171;13.882;99.692;2023-09-30T06:38:27;12.63;;;1.95;;
78820;SDS011;68171;13.882;99.692;2023-09-30T06:39:34;4.27;;;1.73;;
78820;SDS011;68171;13.882;99.692;2023-09-30T06:40:40;6.07;;;2.17;;
78820;SDS011;68171;13.882;99.692;2023-09-30T06:41:46;3.97;;;1.70;;
78820;SDS011;68171;13.882;99.692;2023-09-30T06:42:53;5.93;;;2.13;;
78820;SDS011;68171;13.882;99.692;2023-09-30T06:43:58;6.53;;;1.85;;
78820;SDS011;68171;13.882;99.692;2023-09-30T06:45:05;4.82;;;2.03;;
78820;SDS011;68171;13.882;99.692;2023-09-30T06:46:11;6.18;;;1.90;;